createdAt,value
2017-09-26T00:00:21.021Z,56.91
2017-09-26T00:01:30.634Z,57.1
2017-09-26T00:02:39.586Z,57.1
2017-09-26T00:03:48.849Z,57.2
2017-09-26T00:04:57.804Z,57.1
2017-09-26T00:06:07.074Z,56.62
2017-09-26T00:07:16.035Z,56.91
2017-09-26T00:08:25.338Z,57.1
2017-09-26T00:09:34.621Z,57.01
2017-09-26T00:10:43.596Z,57.01
2017-09-26T00:11:52.575Z,57.01
2017-09-26T00:13:01.556Z,56.91
2017-09-26T00:14:10.518Z,57.01
2017-09-26T00:15:19.490Z,57.1
2017-09-26T00:16:28.759Z,56.91
2017-09-26T00:17:37.428Z,57.01
2017-09-26T00:18:46.078Z,57.1
2017-09-26T00:19:55.066Z,56.91
2017-09-26T00:21:03.785Z,56.91
2017-09-26T00:22:13.706Z,57.01
2017-09-26T00:23:22.675Z,57.1
2017-09-26T00:24:31.637Z,57.1
2017-09-26T00:25:40.293Z,56.91
2017-09-26T00:26:49.267Z,56.81
2017-09-26T00:27:58.547Z,57.1
2017-09-26T00:29:07.195Z,57.1
2017-09-26T00:30:16.475Z,57.1
2017-09-26T00:31:25.134Z,57.2
2017-09-26T00:32:34.796Z,57.2
2017-09-26T00:33:43.772Z,57.1
2017-09-26T00:34:53.367Z,57.2
2017-09-26T00:36:02.031Z,57.2
2017-09-26T00:37:11.323Z,57.2
2017-09-26T00:38:20.007Z,57.2
2017-09-26T00:39:29.295Z,57.1
2017-09-26T00:40:38.256Z,57.2
2017-09-26T00:41:46.910Z,57.2
2017-09-26T00:42:55.882Z,57.01
2017-09-26T00:44:04.853Z,57.2
2017-09-26T00:45:13.869Z,57.01
2017-09-26T00:46:23.165Z,57.01
2017-09-26T00:47:33.089Z,57.01
2017-09-26T00:48:41.743Z,57.01
2017-09-26T00:49:50.705Z,57.01
2017-09-26T00:50:59.732Z,57.2
2017-09-26T00:52:09.340Z,57.01
2017-09-26T00:53:18.954Z,56.91
2017-09-26T00:54:28.226Z,57.2
2017-09-26T00:55:37.521Z,57.2
2017-09-26T00:56:46.819Z,57.1
2017-09-26T00:57:56.095Z,57.2
2017-09-26T00:59:05.063Z,57.2
2017-09-26T01:00:14.029Z,57.01
2017-09-26T01:01:22.991Z,57.2
2017-09-26T01:02:31.653Z,57.1
2017-09-26T01:03:40.944Z,57.2
2017-09-26T01:04:49.913Z,57.01
2017-09-26T01:05:59.539Z,56.91
2017-09-26T01:07:08.816Z,57.1
2017-09-26T01:08:17.805Z,57.2
2017-09-26T01:09:26.765Z,57.2
2017-09-26T01:10:35.744Z,56.91
2017-09-26T01:11:45.348Z,57.29
2017-09-26T01:12:53.994Z,57.1
2017-09-26T01:14:03.268Z,57.01
2017-09-26T01:15:12.867Z,57.2
2017-09-26T01:16:22.156Z,57.2
2017-09-26T01:17:31.443Z,57.2
2017-09-26T01:18:40.103Z,57.2
2017-09-26T01:19:49.080Z,57.2
2017-09-26T01:20:58.701Z,56.91
2017-09-26T01:22:07.359Z,57.2
2017-09-26T01:23:16.333Z,57.01
2017-09-26T01:24:25.300Z,57.2
2017-09-26T01:25:34.637Z,57.01
2017-09-26T01:26:43.902Z,57.2
2017-09-26T01:27:52.863Z,57.1
2017-09-26T01:29:02.146Z,57.1
2017-09-26T01:30:11.132Z,57.2
2017-09-26T01:31:20.122Z,57.2
2017-09-26T01:32:29.419Z,57.2
2017-09-26T01:33:38.062Z,57.2
2017-09-26T01:34:47.663Z,57.2
2017-09-26T01:35:56.940Z,57.1
2017-09-26T01:37:05.909Z,57.2
2017-09-26T01:38:14.900Z,57.1
2017-09-26T01:39:23.548Z,57.01
2017-09-26T01:40:32.524Z,57.2
2017-09-26T01:41:41.178Z,57.2
2017-09-26T01:42:50.205Z,57.2
2017-09-26T01:43:59.171Z,57.2
2017-09-26T01:45:08.773Z,57.2
2017-09-26T01:46:18.673Z,57.2
2017-09-26T01:47:27.654Z,57.2
2017-09-26T01:48:36.312Z,57.1
2017-09-26T01:49:45.285Z,57.2
2017-09-26T01:50:54.587Z,57.01
2017-09-26T01:52:03.554Z,57.2
2017-09-26T01:53:12.839Z,57.2
2017-09-26T01:54:21.801Z,57.01
2017-09-26T01:55:31.093Z,57.2
2017-09-26T01:56:39.749Z,57.2
2017-09-26T01:57:49.356Z,57.29
2017-09-26T01:58:57.996Z,57.2
2017-09-26T02:00:07.276Z,57.2
2017-09-26T02:01:15.928Z,57.01
2017-09-26T02:02:25.847Z,57.2
2017-09-26T02:03:34.505Z,57.29
2017-09-26T02:04:43.466Z,57.2
2017-09-26T02:05:52.752Z,57.2
2017-09-26T02:07:02.033Z,57.01
2017-09-26T02:08:10.688Z,57.01
2017-09-26T02:09:19.333Z,57.2
2017-09-26T02:10:28.294Z,57.2
2017-09-26T02:11:37.578Z,57.29
2017-09-26T02:12:46.242Z,57.01
2017-09-26T02:13:55.530Z,57.1
2017-09-26T02:15:04.504Z,57.01
2017-09-26T02:16:13.492Z,57.2
2017-09-26T02:17:22.464Z,57.2
2017-09-26T02:18:31.783Z,57.39
2017-09-26T02:19:41.067Z,57.01
2017-09-26T02:20:50.043Z,57.2
2017-09-26T02:21:59.332Z,57.2
2017-09-26T02:23:08.294Z,57.01
2017-09-26T02:24:17.591Z,57.29
2017-09-26T02:25:26.312Z,57.01
2017-09-26T02:26:34.995Z,57.2
2017-09-26T02:27:43.658Z,57.1
2017-09-26T02:28:52.622Z,57.1
2017-09-26T02:30:01.593Z,57.29
2017-09-26T02:31:10.903Z,57.2
2017-09-26T02:32:20.184Z,57.29
2017-09-26T02:33:29.147Z,57.2
2017-09-26T02:34:37.809Z,57.1
2017-09-26T02:35:47.100Z,57.1
2017-09-26T02:36:55.769Z,57.2
2017-09-26T02:38:04.419Z,57.01
2017-09-26T02:39:13.390Z,57.01
2017-09-26T02:40:22.356Z,57.2
2017-09-26T02:41:31.323Z,57.2
2017-09-26T02:42:40.942Z,57.2
2017-09-26T02:43:50.229Z,57.2
2017-09-26T02:44:59.514Z,57.2
2017-09-26T02:46:09.105Z,57.01
2017-09-26T02:47:18.075Z,57.01
2017-09-26T02:48:26.730Z,57.2
2017-09-26T02:49:36.017Z,57.1
2017-09-26T02:50:44.992Z,57.2
2017-09-26T02:51:53.643Z,57.2
2017-09-26T02:53:02.619Z,57.1
2017-09-26T02:54:12.217Z,57.2
2017-09-26T02:55:21.187Z,57.2
2017-09-26T02:56:30.488Z,57.2
2017-09-26T02:57:40.103Z,57.2
2017-09-26T02:58:49.707Z,57.1
2017-09-26T02:59:58.377Z,57.2
2017-09-26T03:01:07.372Z,56.91
2017-09-26T03:02:17.278Z,57.1
2017-09-26T03:03:26.243Z,56.91
2017-09-26T03:04:35.217Z,57.1
2017-09-26T03:05:43.867Z,57.01
2017-09-26T03:06:52.514Z,57.2
2017-09-26T03:08:02.115Z,57.1
2017-09-26T03:09:11.194Z,57.2
2017-09-26T03:10:19.847Z,57.2
2017-09-26T03:11:29.128Z,57.1
2017-09-26T03:12:38.107Z,57.01
2017-09-26T03:13:47.385Z,57.01
2017-09-26T03:14:56.720Z,56.62
2017-09-26T03:16:05.686Z,56.91
2017-09-26T03:17:14.672Z,56.81
2017-09-26T03:18:23.951Z,56.91
2017-09-26T03:19:33.277Z,56.91
2017-09-26T03:20:42.275Z,56.91
2017-09-26T03:21:51.870Z,57.1
2017-09-26T03:23:01.142Z,56.91
2017-09-26T03:24:09.795Z,57.01
2017-09-26T03:25:18.755Z,56.91
2017-09-26T03:26:27.739Z,57.01
2017-09-26T03:27:36.703Z,57.1
2017-09-26T03:28:45.974Z,57.01
2017-09-26T03:29:55.023Z,56.91
2017-09-26T03:31:04.321Z,56.91
2017-09-26T03:32:14.235Z,57.1
2017-09-26T03:33:23.521Z,56.91
2017-09-26T03:34:32.489Z,56.81
2017-09-26T03:35:41.456Z,56.91
2017-09-26T03:36:50.434Z,56.72
2017-09-26T03:37:59.233Z,56.72
2017-09-26T03:39:08.194Z,56.62
2017-09-26T03:40:16.842Z,57.01
2017-09-26T03:41:26.156Z,56.72
2017-09-26T03:42:35.164Z,56.62
2017-09-26T03:43:44.801Z,56.72
2017-09-26T03:44:53.760Z,56.72
2017-09-26T03:46:02.736Z,56.72
2017-09-26T03:47:11.701Z,56.81
2017-09-26T03:48:20.362Z,56.72
2017-09-26T03:49:29.642Z,56.72
2017-09-26T03:50:38.918Z,56.72
2017-09-26T03:51:48.540Z,56.72
2017-09-26T03:52:57.861Z,56.62
2017-09-26T03:54:06.810Z,56.81
2017-09-26T03:55:15.850Z,56.81
2017-09-26T03:56:25.176Z,56.72
2017-09-26T03:57:34.144Z,56.72
2017-09-26T03:58:43.111Z,56.72
2017-09-26T03:59:51.769Z,56.52
2017-09-26T04:01:01.685Z,56.62
2017-09-26T04:02:10.355Z,56.72
2017-09-26T04:03:19.005Z,56.24
2017-09-26T04:04:27.652Z,56.81
2017-09-26T04:05:36.958Z,56.81
2017-09-26T04:06:45.930Z,56.81
2017-09-26T04:07:55.545Z,56.81
2017-09-26T04:09:04.828Z,57.01
2017-09-26T04:10:14.138Z,56.62
2017-09-26T04:11:23.417Z,56.52
2017-09-26T04:12:32.727Z,56.52
2017-09-26T04:13:41.383Z,56.43
2017-09-26T04:14:50.662Z,56.33
2017-09-26T04:15:59.622Z,56.43
2017-09-26T04:17:08.908Z,56.43
2017-09-26T04:18:17.571Z,56.52
2017-09-26T04:19:27.190Z,56.62
2017-09-26T04:20:36.165Z,56.81
2017-09-26T04:21:45.444Z,56.43
2017-09-26T04:22:54.740Z,56.62
2017-09-26T04:24:03.713Z,56.24
2017-09-26T04:25:12.704Z,56.43
2017-09-26T04:26:21.345Z,56.52
2017-09-26T04:27:30.328Z,56.43
2017-09-26T04:28:39.283Z,56.43
2017-09-26T04:29:48.263Z,56.33
2017-09-26T04:30:57.269Z,56.43
2017-09-26T04:32:06.551Z,56.33
2017-09-26T04:33:15.219Z,56.33
2017-09-26T04:34:23.865Z,56.33
2017-09-26T04:35:33.460Z,56.43
2017-09-26T04:36:42.430Z,56.52
2017-09-26T04:37:51.390Z,56.43
2017-09-26T04:39:00.665Z,56.33
2017-09-26T04:40:09.720Z,56.33
2017-09-26T04:41:19.104Z,56.33
2017-09-26T04:42:27.776Z,56.24
2017-09-26T04:43:37.099Z,56.52
2017-09-26T04:44:46.744Z,56.72
2017-09-26T04:45:56.351Z,56.52
2017-09-26T04:47:05.362Z,56.72
2017-09-26T04:48:14.664Z,56.72
2017-09-26T04:49:23.666Z,56.72
2017-09-26T04:50:32.986Z,56.72
2017-09-26T04:51:41.965Z,56.62
2017-09-26T04:52:51.280Z,56.72
2017-09-26T04:54:00.252Z,56.52
2017-09-26T04:55:09.223Z,56.72
2017-09-26T04:56:17.917Z,56.72
2017-09-26T04:57:26.961Z,56.72
2017-09-26T04:58:36.253Z,56.62
2017-09-26T04:59:45.853Z,56.52
2017-09-26T05:00:54.585Z,56.72
2017-09-26T05:02:03.604Z,56.24
2017-09-26T05:03:12.585Z,56.72
2017-09-26T05:04:21.989Z,56.72
2017-09-26T05:05:31.026Z,56.72
2017-09-26T05:06:40.077Z,56.72
2017-09-26T05:07:48.737Z,56.72
2017-09-26T05:08:58.045Z,56.52
2017-09-26T05:10:07.346Z,56.72
2017-09-26T05:11:16.363Z,56.52
2017-09-26T05:12:26.322Z,56.52
2017-09-26T05:13:35.629Z,56.43
2017-09-26T05:14:44.314Z,56.52
2017-09-26T05:15:54.040Z,56.81
2017-09-26T05:17:03.044Z,56.72
2017-09-26T05:18:12.009Z,56.81
2017-09-26T05:19:20.656Z,56.52
2017-09-26T05:20:29.352Z,56.52
2017-09-26T05:21:38.059Z,56.43
2017-09-26T05:22:46.918Z,56.33
2017-09-26T05:23:56.897Z,56.43
2017-09-26T05:25:05.858Z,56.33
2017-09-26T05:26:15.188Z,56.62
2017-09-26T05:27:23.884Z,56.52
2017-09-26T05:28:33.201Z,56.62
2017-09-26T05:29:42.165Z,56.81
2017-09-26T05:30:52.079Z,56.16
2017-09-26T05:32:01.092Z,55.85
2017-09-26T05:33:10.694Z,55.94
2017-09-26T05:34:19.997Z,56.04
2017-09-26T05:35:28.652Z,56.14
2017-09-26T05:36:37.646Z,55.98
2017-09-26T05:37:46.941Z,55.98
2017-09-26T05:38:56.548Z,55.98
2017-09-26T05:40:05.534Z,56.46
2017-09-26T05:41:14.598Z,55.88
2017-09-26T05:42:23.567Z,56.07
2017-09-26T05:43:32.539Z,56.07
2017-09-26T05:44:41.822Z,56.36
2017-09-26T05:45:50.794Z,56.07
2017-09-26T05:46:59.810Z,55.88
2017-09-26T05:48:09.091Z,55.59
2017-09-26T05:49:17.744Z,55.59
2017-09-26T05:50:26.785Z,55.59
2017-09-26T05:51:36.113Z,55.78
2017-09-26T05:52:44.809Z,55.88
2017-09-26T05:53:53.463Z,55.88
2017-09-26T05:55:02.140Z,55.88
2017-09-26T05:56:11.455Z,55.59
2017-09-26T05:57:20.110Z,55.59
2017-09-26T05:58:28.766Z,55.88
2017-09-26T05:59:37.751Z,55.98
2017-09-26T06:00:47.050Z,55.68
2017-09-26T06:01:56.334Z,55.78
2017-09-26T06:03:05.326Z,55.4
2017-09-26T06:04:14.617Z,55.88
2017-09-26T06:05:24.263Z,55.88
2017-09-26T06:06:33.597Z,56.16
2017-09-26T06:07:42.863Z,56.36
2017-09-26T06:08:52.167Z,56.07
2017-09-26T06:10:01.778Z,55.98
2017-09-26T06:11:10.761Z,55.98
2017-09-26T06:12:20.087Z,56.16
2017-09-26T06:13:29.200Z,56.16
2017-09-26T06:14:38.503Z,55.88
2017-09-26T06:15:47.579Z,56.07
2017-09-26T06:16:56.563Z,55.98
2017-09-26T06:18:05.925Z,56.16
2017-09-26T06:19:14.942Z,56.16
2017-09-26T06:20:24.233Z,55.98
2017-09-26T06:21:32.893Z,55.98
2017-09-26T06:22:41.623Z,56.07
2017-09-26T06:23:50.639Z,56.16
2017-09-26T06:24:59.616Z,55.98
2017-09-26T06:26:08.592Z,55.98
2017-09-26T06:27:17.335Z,55.98
2017-09-26T06:28:26.627Z,55.98
2017-09-26T06:29:35.637Z,56.16
2017-09-26T06:30:44.663Z,55.98
2017-09-26T06:31:53.973Z,55.98
2017-09-26T06:33:02.966Z,55.98
2017-09-26T06:34:11.660Z,56.07
2017-09-26T06:35:20.923Z,56.16
2017-09-26T06:36:29.911Z,56.16
2017-09-26T06:37:39.867Z,55.98
2017-09-26T06:38:48.570Z,56.07
2017-09-26T06:39:57.538Z,55.98
2017-09-26T06:41:06.850Z,55.98
2017-09-26T06:42:16.446Z,56.07
2017-09-26T06:43:25.743Z,56.26
2017-09-26T06:44:35.081Z,55.78
2017-09-26T06:45:43.783Z,55.68
2017-09-26T06:46:53.095Z,56.07
2017-09-26T06:48:02.702Z,55.98
2017-09-26T06:49:12.003Z,55.78
2017-09-26T06:50:21.956Z,55.88
2017-09-26T06:51:30.618Z,55.98
2017-09-26T06:52:40.320Z,55.78
2017-09-26T06:53:49.675Z,55.98
2017-09-26T06:54:59.292Z,55.78
2017-09-26T06:56:07.968Z,55.78
2017-09-26T06:57:16.980Z,55.4
2017-09-26T06:58:26.334Z,55.88
2017-09-26T06:59:35.007Z,55.68
2017-09-26T07:00:44.370Z,55.68
2017-09-26T07:01:53.517Z,55.59
2017-09-26T07:03:02.704Z,55.78
2017-09-26T07:04:11.688Z,55.78
2017-09-26T07:05:20.664Z,55.81
2017-09-26T07:06:30.329Z,55.88
2017-09-26T07:07:39.026Z,55.81
2017-09-26T07:08:48.403Z,55.88
2017-09-26T07:09:57.381Z,55.81
2017-09-26T07:11:06.367Z,55.78
2017-09-26T07:12:15.345Z,55.9
2017-09-26T07:13:24.643Z,55.81
2017-09-26T07:14:33.626Z,55.9
2017-09-26T07:15:42.338Z,55.62
2017-09-26T07:16:52.788Z,55.71
2017-09-26T07:18:02.305Z,55.81
2017-09-26T07:19:11.805Z,55.81
2017-09-26T07:20:20.583Z,55.71
2017-09-26T07:21:29.877Z,55.71
2017-09-26T07:22:41.405Z,55.71
2017-09-26T07:23:51.121Z,56.1
2017-09-26T07:25:00.673Z,55.9
2017-09-26T07:26:10.230Z,55.81
2017-09-26T07:27:19.932Z,55.81
2017-09-26T07:28:29.073Z,55.42
2017-09-26T07:29:38.739Z,55.9
2017-09-26T07:30:48.058Z,55.33
2017-09-26T07:31:58.008Z,55.23
2017-09-26T07:33:06.717Z,55.33
2017-09-26T07:34:15.922Z,55.33
2017-09-26T07:35:25.265Z,55.23
2017-09-26T07:36:34.945Z,55.23
2017-09-26T07:37:44.870Z,55.42
2017-09-26T07:38:53.660Z,55.42
2017-09-26T07:40:03.899Z,55.52
2017-09-26T07:41:15.684Z,55.33
2017-09-26T07:42:25.130Z,55.62
2017-09-26T07:43:35.465Z,55.23
2017-09-26T07:44:45.449Z,55.23
2017-09-26T07:45:54.745Z,55.23
2017-09-26T07:47:04.435Z,55.42
2017-09-26T07:48:13.166Z,55.42
2017-09-26T07:49:22.176Z,55.23
2017-09-26T07:50:32.160Z,55.13
2017-09-26T07:52:49.225Z,55.33
2017-09-26T07:53:58.875Z,55.23
2017-09-26T07:55:07.860Z,55.13
2017-09-26T07:56:17.191Z,55.33
2017-09-26T07:57:26.798Z,55.35
2017-09-26T07:58:35.472Z,55.13
2017-09-26T07:59:44.773Z,54.94
2017-09-26T08:00:53.755Z,54.94
2017-09-26T08:02:02.730Z,55.04
2017-09-26T08:03:11.397Z,55.13
2017-09-26T08:04:20.109Z,54.94
2017-09-26T08:05:29.092Z,54.94
2017-09-26T08:06:38.080Z,54.97
2017-09-26T08:07:47.058Z,55.13
2017-09-26T08:08:55.718Z,54.94
2017-09-26T08:10:05.014Z,55.33
2017-09-26T08:11:13.780Z,55.33
2017-09-26T08:12:22.762Z,55.33
2017-09-26T08:13:31.768Z,55.04
2017-09-26T08:14:42.022Z,54.84
2017-09-26T08:15:51.317Z,54.87
2017-09-26T08:17:00.028Z,54.94
2017-09-26T08:18:09.327Z,54.97
2017-09-26T08:19:17.999Z,55.04
2017-09-26T08:20:26.981Z,54.97
2017-09-26T08:21:35.656Z,55.23
2017-09-26T08:22:44.741Z,54.94
2017-09-26T08:23:53.726Z,55.23
2017-09-26T08:25:02.745Z,55.23
2017-09-26T08:26:12.030Z,55.23
2017-09-26T08:27:21.321Z,55.23
2017-09-26T08:28:30.392Z,55.16
2017-09-26T08:29:39.077Z,55.16
2017-09-26T08:30:48.364Z,55.07
2017-09-26T08:31:57.671Z,55.16
2017-09-26T08:33:06.658Z,54.77
2017-09-26T08:34:15.646Z,54.97
2017-09-26T08:35:25.466Z,54.75
2017-09-26T08:36:34.556Z,54.87
2017-09-26T08:37:43.852Z,54.77
2017-09-26T08:38:52.825Z,54.77
2017-09-26T08:40:02.143Z,54.87
2017-09-26T08:41:11.439Z,54.77
2017-09-26T08:42:20.128Z,54.97
2017-09-26T08:43:30.082Z,54.58
2017-09-26T08:44:39.130Z,54.58
2017-09-26T08:45:48.125Z,55.07
2017-09-26T08:46:57.121Z,54.68
2017-09-26T08:48:06.112Z,54.77
2017-09-26T08:49:15.476Z,54.97
2017-09-26T08:50:25.467Z,54.97
2017-09-26T08:51:35.460Z,55.07
2017-09-26T08:52:44.764Z,54.77
2017-09-26T08:53:53.748Z,54.49
2017-09-26T08:55:02.438Z,54.39
2017-09-26T08:56:11.745Z,54.58
2017-09-26T08:57:21.060Z,54.68
2017-09-26T08:58:29.755Z,55.35
2017-09-26T08:59:39.084Z,54.39
2017-09-26T09:00:49.030Z,54.39
2017-09-26T09:01:58.035Z,54.68
2017-09-26T09:03:07.382Z,54.49
2017-09-26T09:04:16.366Z,54.49
2017-09-26T09:05:25.681Z,54.39
2017-09-26T09:06:34.995Z,54.49
2017-09-26T09:07:43.664Z,54.71
2017-09-26T09:08:53.052Z,54.68
2017-09-26T09:10:01.788Z,54.49
2017-09-26T09:11:10.464Z,54.51
2017-09-26T09:12:20.098Z,54.49
2017-09-26T09:13:28.772Z,54.49
2017-09-26T09:14:37.775Z,54.39
2017-09-26T09:15:46.772Z,54.49
2017-09-26T09:16:55.751Z,54.77
2017-09-26T09:18:05.364Z,55.07
2017-09-26T09:19:14.432Z,54.97
2017-09-26T09:20:23.495Z,54.87
2017-09-26T09:21:32.865Z,54.97
2017-09-26T09:22:41.554Z,54.97
2017-09-26T09:23:50.859Z,54.97
2017-09-26T09:25:00.177Z,54.68
2017-09-26T09:26:09.160Z,54.77
2017-09-26T09:27:18.787Z,54.97
2017-09-26T09:28:27.828Z,54.87
2017-09-26T09:29:37.217Z,55.07
2017-09-26T09:30:46.543Z,54.97
2017-09-26T09:31:55.616Z,54.77
2017-09-26T09:33:04.683Z,55.07
2017-09-26T09:34:14.285Z,55.07
2017-09-26T09:35:23.593Z,55.16
2017-09-26T09:36:32.269Z,55.16
2017-09-26T09:37:41.926Z,55.26
2017-09-26T09:38:50.909Z,55.26
2017-09-26T09:40:00.234Z,54.97
2017-09-26T09:41:08.896Z,55.16
2017-09-26T09:42:17.881Z,55.35
2017-09-26T09:43:27.246Z,55.16
2017-09-26T09:44:37.167Z,54.87
2017-09-26T09:45:45.838Z,55.16
2017-09-26T09:46:55.139Z,55.26
2017-09-26T09:48:04.409Z,55.35
2017-09-26T09:49:13.466Z,55.35
2017-09-26T09:50:22.132Z,55.35
2017-09-26T09:51:31.144Z,55.45
2017-09-26T09:52:40.508Z,55.35
2017-09-26T09:53:49.480Z,55.45
2017-09-26T09:54:58.468Z,55.52
2017-09-26T09:56:07.484Z,55.55
2017-09-26T09:57:16.477Z,55.55
2017-09-26T09:58:25.469Z,55.55
2017-09-26T09:59:34.485Z,55.42
2017-09-26T10:00:43.484Z,55.55
2017-09-26T10:01:52.470Z,55.45
2017-09-26T10:03:01.541Z,55.45
2017-09-26T10:04:10.259Z,55.55
2017-09-26T10:05:19.957Z,55.33
2017-09-26T10:06:29.244Z,55.45
2017-09-26T10:07:38.556Z,55.35
2017-09-26T10:08:47.550Z,55.42
2017-09-26T10:09:57.166Z,55.33
2017-09-26T10:11:06.667Z,55.45
2017-09-26T10:12:16.043Z,55.33
2017-09-26T10:13:25.342Z,55.55
2017-09-26T10:14:34.360Z,55.55
2017-09-26T10:15:43.688Z,55.55
2017-09-26T10:16:52.677Z,55.45
2017-09-26T10:18:01.739Z,55.55
2017-09-26T10:19:10.717Z,55.45
2017-09-26T10:20:20.728Z,55.35
2017-09-26T10:21:29.416Z,55.55
2017-09-26T10:22:38.385Z,55.65
2017-09-26T10:23:47.696Z,55.35
2017-09-26T10:24:56.986Z,55.55
2017-09-26T10:26:06.265Z,55.55
2017-09-26T10:27:14.959Z,55.26
2017-09-26T10:28:24.591Z,55.45
2017-09-26T10:29:33.924Z,55.45
2017-09-26T10:30:43.216Z,55.65
2017-09-26T10:31:52.192Z,55.65
2017-09-26T10:33:01.801Z,55.65
2017-09-26T10:34:10.770Z,55.65
2017-09-26T10:35:19.776Z,55.45
2017-09-26T10:36:28.774Z,55.35
2017-09-26T10:37:38.093Z,55.55
2017-09-26T10:38:46.784Z,55.62
2017-09-26T10:39:56.097Z,55.65
2017-09-26T10:41:05.425Z,55.33
2017-09-26T10:42:14.404Z,55.42
2017-09-26T10:43:23.692Z,55.42
2017-09-26T10:44:33.618Z,55.42
2017-09-26T10:45:42.589Z,55.45
2017-09-26T10:46:51.579Z,55.45
2017-09-26T10:48:00.264Z,55.45
2017-09-26T10:49:08.922Z,55.42
2017-09-26T10:50:17.899Z,55.42
2017-09-26T10:51:27.185Z,55.35
2017-09-26T10:52:36.459Z,55.42
2017-09-26T10:53:45.140Z,55.42
2017-09-26T10:54:54.140Z,55.23
2017-09-26T10:56:03.177Z,55.42
2017-09-26T10:57:12.177Z,55.52
2017-09-26T10:58:21.477Z,55.45
2017-09-26T10:59:30.491Z,55.45
2017-09-26T11:00:39.489Z,55.45
2017-09-26T11:01:48.522Z,55.52
2017-09-26T11:02:57.868Z,55.55
2017-09-26T11:04:06.541Z,55.55
2017-09-26T11:05:15.563Z,55.45
2017-09-26T11:06:24.222Z,55.23
2017-09-26T11:07:33.506Z,55.42
2017-09-26T11:08:42.188Z,55.62
2017-09-26T11:09:50.887Z,55.62
2017-09-26T11:10:59.558Z,55.42
2017-09-26T11:12:08.862Z,55.55
2017-09-26T11:13:18.189Z,55.55
2017-09-26T11:14:27.165Z,55.45
2017-09-26T11:15:35.861Z,55.62
2017-09-26T11:16:45.179Z,55.26
2017-09-26T11:17:54.804Z,55.45
2017-09-26T11:19:04.446Z,55.52
2017-09-26T11:20:13.114Z,55.26
2017-09-26T11:21:22.420Z,55.65
2017-09-26T11:22:31.413Z,55.62
2017-09-26T11:23:40.400Z,55.52
2017-09-26T11:24:49.370Z,55.45
2017-09-26T11:25:58.668Z,55.33
2017-09-26T11:27:07.965Z,55.26
2017-09-26T11:28:16.961Z,55.26
2017-09-26T11:29:26.246Z,55.52
2017-09-26T11:30:35.562Z,55.55
2017-09-26T11:31:44.222Z,55.42
2017-09-26T11:32:53.188Z,55.45
2017-09-26T11:34:02.867Z,55.26
2017-09-26T11:35:11.836Z,55.23
2017-09-26T11:36:20.809Z,55.35
2017-09-26T11:37:30.132Z,55.35
2017-09-26T11:38:39.123Z,55.07
2017-09-26T11:39:48.451Z,55.16
2017-09-26T11:40:57.417Z,55.07
2017-09-26T11:42:06.736Z,55.26
2017-09-26T11:43:16.351Z,55.26
2017-09-26T11:44:25.383Z,55.16
2017-09-26T11:45:35.038Z,54.97
2017-09-26T11:46:43.709Z,54.97
2017-09-26T11:47:53.034Z,55.07
2017-09-26T11:49:02.668Z,55.07
2017-09-26T11:50:12.288Z,55.16
2017-09-26T11:51:21.266Z,55.16
2017-09-26T11:52:29.958Z,54.97
2017-09-26T11:53:38.710Z,54.97
2017-09-26T11:54:48.337Z,54.97
2017-09-26T11:55:57.622Z,55.16
2017-09-26T11:57:06.914Z,55.07
2017-09-26T11:58:15.888Z,55.07
2017-09-26T11:59:25.191Z,54.97
2017-09-26T12:00:34.536Z,55.07
2017-09-26T12:01:43.831Z,55.07
2017-09-26T12:02:52.828Z,55.16
2017-09-26T12:04:02.119Z,55.07
2017-09-26T12:05:10.793Z,54.87
2017-09-26T12:06:19.779Z,55.07
2017-09-26T12:07:28.442Z,55.16
2017-09-26T12:08:37.783Z,55.07
2017-09-26T12:09:47.088Z,54.97
2017-09-26T12:10:56.081Z,54.77
2017-09-26T12:12:05.051Z,54.87
2017-09-26T12:13:13.702Z,54.68
2017-09-26T12:14:22.372Z,54.87
2017-09-26T12:15:31.369Z,54.87
2017-09-26T12:16:40.369Z,54.77
2017-09-26T12:17:49.377Z,54.77
2017-09-26T12:18:58.355Z,54.77
2017-09-26T12:20:07.340Z,54.87
2017-09-26T12:21:16.313Z,54.77
2017-09-26T12:22:25.614Z,54.68
2017-09-26T12:23:35.535Z,54.87
2017-09-26T12:24:44.537Z,54.77
2017-09-26T12:25:53.206Z,54.87
2017-09-26T12:27:02.492Z,55.07
2017-09-26T12:28:11.777Z,54.58
2017-09-26T12:29:20.737Z,54.87
2017-09-26T12:30:29.396Z,54.58
2017-09-26T12:31:38.066Z,54.87
2017-09-26T12:32:46.736Z,54.97
2017-09-26T12:33:55.713Z,54.68
2017-09-26T12:35:04.690Z,54.87
2017-09-26T12:36:13.357Z,54.77
2017-09-26T12:37:22.350Z,54.77
2017-09-26T12:38:31.006Z,54.58
2017-09-26T12:39:40.611Z,54.77
2017-09-26T12:40:49.601Z,54.68
2017-09-26T12:41:58.889Z,54.68
2017-09-26T12:43:07.918Z,54.68
2017-09-26T12:44:17.230Z,54.97
2017-09-26T12:45:25.896Z,54.77
2017-09-26T12:46:34.871Z,54.97
2017-09-26T12:47:43.873Z,54.97
2017-09-26T12:48:52.857Z,54.87
2017-09-26T12:50:02.804Z,54.87
2017-09-26T12:51:11.782Z,54.87
2017-09-26T12:52:20.761Z,55.07
2017-09-26T12:53:30.395Z,55.07
2017-09-26T12:54:39.367Z,54.87
2017-09-26T12:55:48.990Z,54.49
2017-09-26T12:56:57.973Z,54.49
2017-09-26T12:58:07.284Z,54.58
2017-09-26T12:59:16.897Z,54.58
2017-09-26T13:00:26.495Z,54.68
2017-09-26T13:01:35.784Z,54.58
2017-09-26T13:02:44.440Z,54.58
2017-09-26T13:03:53.095Z,54.58
2017-09-26T13:05:01.760Z,54.58
2017-09-26T13:06:10.741Z,54.49
2017-09-26T13:07:19.413Z,54.39
2017-09-26T13:08:28.070Z,54.58
2017-09-26T13:09:36.745Z,54.49
2017-09-26T13:10:45.431Z,54.49
2017-09-26T13:11:54.088Z,54.58
2017-09-26T13:13:03.087Z,54.49
2017-09-26T13:14:12.374Z,54.58
2017-09-26T13:15:21.345Z,54.49
2017-09-26T13:16:31.098Z,54.49
2017-09-26T13:17:40.116Z,54.39
2017-09-26T13:18:48.786Z,54.49
2017-09-26T13:19:57.782Z,54.39
2017-09-26T13:21:06.767Z,54.29
2017-09-26T13:22:15.465Z,54.49
2017-09-26T13:23:25.105Z,54.49
2017-09-26T13:24:33.776Z,54.49
2017-09-26T13:25:42.454Z,54.49
2017-09-26T13:26:51.797Z,54.49
2017-09-26T13:28:01.094Z,54.29
2017-09-26T13:29:10.416Z,54.49
2017-09-26T13:30:19.483Z,54.49
2017-09-26T13:31:28.567Z,54.41
2017-09-26T13:32:37.597Z,54
2017-09-26T13:33:46.574Z,54
2017-09-26T13:34:55.572Z,54.51
2017-09-26T13:36:04.577Z,54.51
2017-09-26T13:37:13.559Z,53.93
2017-09-26T13:38:23.500Z,54.41
2017-09-26T13:39:32.822Z,54.13
2017-09-26T13:40:42.422Z,54.71
2017-09-26T13:41:51.393Z,54.51
2017-09-26T13:43:00.408Z,54.41
2017-09-26T13:44:09.381Z,54.71
2017-09-26T13:45:18.370Z,54.51
2017-09-26T13:46:27.670Z,54.22
2017-09-26T13:47:36.394Z,54.51
2017-09-26T13:48:45.075Z,54.51
2017-09-26T13:49:54.056Z,54.41
2017-09-26T13:51:03.123Z,54.41
2017-09-26T13:52:11.789Z,54.51
2017-09-26T13:53:21.136Z,54.61
2017-09-26T13:54:29.804Z,54.71
2017-09-26T13:55:39.099Z,54.71
2017-09-26T13:56:48.435Z,54.41
2017-09-26T13:57:57.174Z,54.51
2017-09-26T13:59:06.820Z,54.22
2017-09-26T14:00:15.835Z,54.32
2017-09-26T14:01:25.164Z,54.68
2017-09-26T14:02:34.141Z,54.39
2017-09-26T14:03:42.825Z,54.49
2017-09-26T14:04:51.829Z,54.49
2017-09-26T14:06:00.526Z,54.39
2017-09-26T14:07:09.598Z,54.61
2017-09-26T14:08:18.597Z,54.39
2017-09-26T14:09:27.598Z,54.61
2017-09-26T14:10:37.229Z,54.39
2017-09-26T14:11:46.199Z,54.49
2017-09-26T14:12:55.816Z,54.49
2017-09-26T14:14:05.305Z,54.49
2017-09-26T14:15:14.373Z,54.58
2017-09-26T14:16:23.046Z,54.49
2017-09-26T14:17:32.085Z,54.68
2017-09-26T14:18:41.453Z,54.61
2017-09-26T14:19:50.426Z,54.49
2017-09-26T14:20:59.404Z,54.51
2017-09-26T14:22:08.102Z,54.51
2017-09-26T14:23:17.173Z,54.58
2017-09-26T14:24:26.578Z,54.49
2017-09-26T14:25:36.351Z,54.32
2017-09-26T14:26:45.968Z,54.49
2017-09-26T14:27:55.385Z,54.49
2017-09-26T14:29:04.130Z,54.51
2017-09-26T14:30:13.136Z,54.49
2017-09-26T14:31:22.436Z,54.49
2017-09-26T14:32:31.099Z,54.49
2017-09-26T14:33:40.264Z,54.49
2017-09-26T14:34:49.238Z,54.39
2017-09-26T14:35:58.242Z,54.49
2017-09-26T14:37:07.262Z,54.58
2017-09-26T14:38:16.258Z,54.49
2017-09-26T14:39:25.259Z,54.39
2017-09-26T14:40:34.289Z,54.39
2017-09-26T14:41:43.662Z,54.39
2017-09-26T14:42:52.455Z,54.29
2017-09-26T14:44:01.145Z,54.39
2017-09-26T14:45:10.772Z,54.39
2017-09-26T14:46:19.814Z,54.39
2017-09-26T14:47:29.127Z,54.58
2017-09-26T14:48:37.829Z,54.49
2017-09-26T14:49:46.816Z,54.39
2017-09-26T14:50:56.114Z,54.39
2017-09-26T14:52:05.418Z,54.68
2017-09-26T14:53:15.062Z,54.68
2017-09-26T14:54:24.369Z,54.77
2017-09-26T14:55:33.381Z,55.07